Time,TemperatureF,DewpointF,PressureIn,WindDirection,WindDirectionDegrees,WindSpeedMPH,WindSpeedGustMPH,Humidity,HourlyPrecipIn,Conditions,Clouds,dailyrainin,SoftwareType,DateUTC
2013-01-14 00:04:00,12.6,8.9,30.37,NW,325,2.0,2.0,85,0.00,,,0.00,Wunderground v.1.15,2013-01-14 06:04:00,
2013-01-14 00:10:00,12.8,9.1,30.37,NW,325,1.0,1.0,85,0.00,,,0.00,Wunderground v.1.15,2013-01-14 06:10:00,
2013-01-14 00:16:00,13.0,9.1,30.38,NW,325,1.0,2.0,84,0.00,,,0.00,Wunderground v.1.15,2013-01-14 06:16:00,
2013-01-14 00:22:00,12.6,8.4,30.38,NW,325,2.0,2.0,83,0.00,,,0.00,Wunderground v.1.15,2013-01-14 06:22:00,
2013-01-14 00:27:00,11.7,7.5,30.39,NW,325,2.0,2.0,83,0.00,,,0.00,Wunderground v.1.15,2013-01-14 06:27:00,
2013-01-14 00:33:00,10.8,7.2,30.39,NW,325,2.0,2.0,85,0.00,,,0.00,Wunderground v.1.15,2013-01-14 06:33:00,
2013-01-14 00:39:00,10.6,7.2,30.39,NW,325,1.0,2.0,86,0.00,,,0.00,Wunderground v.1.15,2013-01-14 06:39:00,
2013-01-14 00:45:00,10.7,7.6,30.39,NW,325,1.0,2.0,87,0.00,,,0.00,Wunderground v.1.15,2013-01-14 06:45:00,
2013-01-14 00:50:00,10.7,7.6,30.40,NW,325,1.0,2.0,87,0.00,,,0.00,Wunderground v.1.15,2013-01-14 06:50:00,
2013-01-14 00:55:00,10.6,7.5,30.40,NW,325,1.0,2.0,87,0.00,,,0.00,Wunderground v.1.15,2013-01-14 06:55:00,
2013-01-14 01:01:00,10.7,7.6,30.40,NW,325,2.0,3.0,87,0.00,,,0.00,Wunderground v.1.15,2013-01-14 07:01:00,
2013-01-14 01:07:00,9.9,6.6,30.41,NW,325,2.0,3.0,86,0.00,,,0.00,Wunderground v.1.15,2013-01-14 07:07:00,
2013-01-14 01:12:00,10.1,7.0,30.41,NW,325,2.0,2.0,87,0.00,,,0.00,Wunderground v.1.15,2013-01-14 07:12:00,
2013-01-14 01:17:00,10.3,7.2,30.41,NW,325,2.0,2.0,87,0.00,,,0.00,Wunderground v.1.15,2013-01-14 07:17:00,
2013-01-14 01:23:00,9.7,6.4,30.42,NW,325,2.0,2.0,86,0.00,,,0.00,Wunderground v.1.15,2013-01-14 07:23:00,
2013-01-14 01:29:00,8.9,5.6,30.42,NW,325,1.0,2.0,86,0.00,,,0.00,Wunderground v.1.15,2013-01-14 07:29:00,
2013-01-14 01:34:00,8.5,5.4,30.42,NW,325,1.0,2.0,87,0.00,,,0.00,Wunderground v.1.15,2013-01-14 07:34:00,
2013-01-14 01:40:00,8.2,5.4,30.42,NW,325,1.0,2.0,88,0.00,,,0.00,Wunderground v.1.15,2013-01-14 07:40:00,
2013-01-14 01:45:00,8.3,5.5,30.44,NW,325,1.0,2.0,88,0.00,,,0.00,Wunderground v.1.15,2013-01-14 07:45:00,
2013-01-14 01:51:00,8.0,5.2,30.44,NW,325,2.0,2.0,88,0.00,,,0.00,Wunderground v.1.15,2013-01-14 07:51:00,
2013-01-14 01:56:00,8.3,5.7,30.44,NW,325,2.0,2.0,89,0.00,,,0.00,Wunderground v.1.15,2013-01-14 07:56:00,
2013-01-14 02:02:00,8.5,5.7,30.45,NW,325,2.0,3.0,88,0.00,,,0.00,Wunderground v.1.15,2013-01-14 08:02:00,
2013-01-14 02:08:00,9.0,6.4,30.45,NW,325,2.0,4.0,89,0.00,,,0.00,Wunderground v.1.15,2013-01-14 08:08:00,
2013-01-14 02:14:00,9.4,6.6,30.46,NW,325,2.0,3.0,88,0.00,,,0.00,Wunderground v.1.15,2013-01-14 08:14:00,
2013-01-14 02:19:00,10.0,7.4,30.46,NW,325,2.0,4.0,89,0.00,,,0.00,Wunderground v.1.15,2013-01-14 08:19:00,
2013-01-14 02:25:00,10.8,7.9,30.46,NW,325,3.0,4.0,88,0.00,,,0.00,Wunderground v.1.15,2013-01-14 08:25:00,
2013-01-14 02:31:00,10.9,7.8,30.46,NW,325,3.0,4.0,87,0.00,,,0.00,Wunderground v.1.15,2013-01-14 08:31:00,
2013-01-14 02:37:00,11.3,8.2,30.46,NW,325,3.0,4.0,87,0.00,,,0.00,Wunderground v.1.15,2013-01-14 08:37:00,
2013-01-14 02:42:00,11.5,8.1,30.46,NW,325,4.0,4.0,86,0.00,,,0.00,Wunderground v.1.15,2013-01-14 08:42:00,
2013-01-14 02:47:00,11.4,7.8,30.46,NW,325,4.0,4.0,85,0.00,,,0.00,Wunderground v.1.15,2013-01-14 08:47:00,
2013-01-14 02:54:00,11.4,7.8,30.46,NW,325,3.0,4.0,85,0.00,,,0.00,Wunderground v.1.15,2013-01-14 08:54:00,
2013-01-14 03:00:00,11.1,7.5,30.46,NW,325,2.0,2.0,85,0.00,,,0.00,Wunderground v.1.15,2013-01-14 09:00:00,
2013-01-14 03:06:00,10.8,7.2,30.47,NW,325,3.0,4.0,85,0.00,,,0.00,Wunderground v.1.15,2013-01-14 09:06:00,
2013-01-14 03:12:00,10.5,6.9,30.47,NW,325,3.0,3.0,85,0.00,,,0.00,Wunderground v.1.15,2013-01-14 09:12:00,
2013-01-14 03:17:00,10.3,6.7,30.46,NW,325,3.0,4.0,85,0.00,,,0.00,Wunderground v.1.15,2013-01-14 09:17:00,
2013-01-14 03:23:00,10.5,7.1,30.47,NW,325,3.0,3.0,86,0.00,,,0.00,Wunderground v.1.15,2013-01-14 09:23:00,
2013-01-14 03:28:00,10.7,7.3,30.47,NW,325,3.0,5.0,86,0.00,,,0.00,Wunderground v.1.15,2013-01-14 09:28:00,
2013-01-14 03:34:00,11.0,7.6,30.47,NW,325,4.0,5.0,86,0.00,,,0.00,Wunderground v.1.15,2013-01-14 09:34:00,
2013-01-14 03:40:00,10.9,7.3,30.48,NW,325,3.0,4.0,85,0.00,,,0.00,Wunderground v.1.15,2013-01-14 09:40:00,
2013-01-14 03:45:00,11.0,7.4,30.48,NW,325,3.0,4.0,85,0.00,,,0.00,Wunderground v.1.15,2013-01-14 09:45:00,
2013-01-14 03:51:00,10.9,7.0,30.47,NW,325,3.0,3.0,84,0.00,,,0.00,Wunderground v.1.15,2013-01-14 09:51:00,
2013-01-14 03:56:00,10.7,6.8,30.47,NW,325,2.0,3.0,84,0.00,,,0.00,Wunderground v.1.15,2013-01-14 09:56:00,
2013-01-14 04:02:00,10.8,6.9,30.47,NW,325,2.0,4.0,84,0.00,,,0.00,Wunderground v.1.15,2013-01-14 10:02:00,
2013-01-14 04:08:00,10.6,6.7,30.47,NW,325,3.0,4.0,84,0.00,,,0.00,Wunderground v.1.15,2013-01-14 10:08:00,
2013-01-14 04:13:00,10.3,6.4,30.47,NW,325,3.0,4.0,84,0.00,,,0.00,Wunderground v.1.15,2013-01-14 10:13:00,
2013-01-14 04:19:00,10.0,6.1,30.47,NW,325,3.0,4.0,84,0.00,,,0.00,Wunderground v.1.15,2013-01-14 10:19:00,
2013-01-14 04:24:00,9.9,6.3,30.47,NW,325,3.0,4.0,85,0.00,,,0.00,Wunderground v.1.15,2013-01-14 10:24:00,
2013-01-14 04:29:00,9.9,6.3,30.47,NW,325,3.0,4.0,85,0.00,,,0.00,Wunderground v.1.15,2013-01-14 10:29:00,
2013-01-14 04:34:00,10.0,6.4,30.47,NW,325,2.0,4.0,85,0.00,,,0.00,Wunderground v.1.15,2013-01-14 10:34:00,
2013-01-14 04:40:00,10.0,6.4,30.47,NW,325,2.0,2.0,85,0.00,,,0.00,Wunderground v.1.15,2013-01-14 10:40:00,
2013-01-14 04:45:00,10.2,6.6,30.47,NW,325,2.0,2.0,85,0.00,,,0.00,Wunderground v.1.15,2013-01-14 10:45:00,
2013-01-14 04:51:00,10.1,6.5,30.47,NW,325,1.0,2.0,85,0.00,,,0.00,Wunderground v.1.15,2013-01-14 10:51:00,
2013-01-14 04:56:00,10.3,6.7,30.47,NW,325,2.0,3.0,85,0.00,,,0.00,Wunderground v.1.15,2013-01-14 10:56:00,
2013-01-14 05:02:00,10.4,6.8,30.47,NW,325,1.0,2.0,85,0.00,,,0.00,Wunderground v.1.15,2013-01-14 11:02:00,
2013-01-14 05:08:00,10.7,7.1,30.47,NW,325,2.0,2.0,85,0.00,,,0.00,Wunderground v.1.15,2013-01-14 11:08:00,
2013-01-14 05:14:00,10.9,7.3,30.47,NW,325,2.0,4.0,85,0.00,,,0.00,Wunderground v.1.15,2013-01-14 11:14:00,
2013-01-14 05:20:00,10.9,7.0,30.47,NW,325,2.0,2.0,84,0.00,,,0.00,Wunderground v.1.15,2013-01-14 11:20:00,
2013-01-14 05:25:00,10.8,6.9,30.47,NW,325,2.0,2.0,84,0.00,,,0.00,Wunderground v.1.15,2013-01-14 11:25:00,
2013-01-14 05:31:00,10.9,7.0,30.47,NW,325,2.0,2.0,84,0.00,,,0.00,Wunderground v.1.15,2013-01-14 11:31:00,
2013-01-14 05:37:00,10.8,6.9,30.47,NW,325,1.0,2.0,84,0.00,,,0.00,Wunderground v.1.15,2013-01-14 11:37:00,
2013-01-14 05:43:00,10.7,6.8,30.47,NW,325,0.0,2.0,84,0.00,,,0.00,Wunderground v.1.15,2013-01-14 11:43:00,
2013-01-14 05:48:00,10.5,6.6,30.46,NW,325,0.0,2.0,84,0.00,,,0.00,Wunderground v.1.15,2013-01-14 11:48:00,
2013-01-14 05:54:00,10.5,6.6,30.46,NW,325,1.0,2.0,84,0.00,,,0.00,Wunderground v.1.15,2013-01-14 11:54:00,
2013-01-14 06:00:00,10.3,6.4,30.46,NW,325,1.0,1.0,84,0.00,,,0.00,Wunderground v.1.15,2013-01-14 12:00:00,
2013-01-14 06:05:00,10.0,6.1,30.47,NW,325,1.0,2.0,84,0.00,,,0.00,Wunderground v.1.15,2013-01-14 12:05:00,
2013-01-14 06:10:00,9.8,5.9,30.47,NW,325,0.0,2.0,84,0.00,,,0.00,Wunderground v.1.15,2013-01-14 12:10:00,
2013-01-14 06:17:00,9.6,6.0,30.47,NW,325,0.0,2.0,85,0.00,,,0.00,Wunderground v.1.15,2013-01-14 12:17:00,
2013-01-14 06:23:00,9.4,5.8,30.47,NW,325,0.0,2.0,85,0.00,,,0.00,Wunderground v.1.15,2013-01-14 12:23:00,
2013-01-14 06:29:00,9.4,5.8,30.48,NW,325,0.0,2.0,85,0.00,,,0.00,Wunderground v.1.15,2013-01-14 12:29:00,
2013-01-14 06:35:00,9.3,6.0,30.48,NW,325,0.0,2.0,86,0.00,,,0.00,Wunderground v.1.15,2013-01-14 12:35:00,
2013-01-14 06:40:00,9.4,6.1,30.48,NW,325,0.0,2.0,86,0.00,,,0.00,Wunderground v.1.15,2013-01-14 12:40:00,
2013-01-14 06:46:00,9.4,6.1,30.48,NW,325,0.0,2.0,86,0.00,,,0.00,Wunderground v.1.15,2013-01-14 12:46:00,
2013-01-14 06:52:00,9.3,5.7,30.48,NW,325,0.0,2.0,85,0.00,,,0.00,Wunderground v.1.15,2013-01-14 12:52:00,
2013-01-14 06:57:00,9.2,5.6,30.49,NW,325,1.0,2.0,85,0.00,,,0.00,Wunderground v.1.15,2013-01-14 12:57:00,
2013-01-14 07:03:00,9.2,5.6,30.49,NW,325,1.0,2.0,85,0.00,,,0.00,Wunderground v.1.15,2013-01-14 13:03:00,
2013-01-14 07:09:00,9.1,5.5,30.49,NW,325,0.0,2.0,85,0.00,,,0.00,Wunderground v.1.15,2013-01-14 13:09:00,
2013-01-14 07:15:00,9.0,5.4,30.48,NNE,22,1.0,4.0,85,0.00,,,0.00,Wunderground v.1.15,2013-01-14 13:15:00,
2013-01-14 07:21:00,8.9,5.3,30.48,NNE,24,1.0,2.0,85,0.00,,,0.00,Wunderground v.1.15,2013-01-14 13:21:00,
2013-01-14 07:26:00,8.7,5.1,30.47,NNE,24,1.0,2.0,85,0.00,,,0.00,Wunderground v.1.15,2013-01-14 13:26:00,
2013-01-14 07:32:00,8.7,5.1,30.47,NNE,24,1.0,2.0,85,0.00,,,0.00,Wunderground v.1.15,2013-01-14 13:32:00,
2013-01-14 07:38:00,9.1,5.5,30.47,NE,53,2.0,6.0,85,0.00,,,0.00,Wunderground v.1.15,2013-01-14 13:38:00,
2013-01-14 07:44:00,9.7,6.1,30.47,NE,51,4.0,5.0,85,0.00,,,0.00,Wunderground v.1.15,2013-01-14 13:44:00,
2013-01-14 07:50:00,10.1,6.5,30.48,NE,54,3.0,3.0,85,0.00,,,0.00,Wunderground v.1.15,2013-01-14 13:50:00,
2013-01-14 07:56:00,10.5,6.6,30.49,NE,54,2.0,4.0,84,0.00,,,0.00,Wunderground v.1.15,2013-01-14 13:56:00,
2013-01-14 08:02:00,10.7,6.6,30.49,NE,53,2.0,4.0,83,0.00,,,0.00,Wunderground v.1.15,2013-01-14 14:02:00,
2013-01-14 08:07:00,11.0,6.8,30.48,NE,49,2.0,4.0,83,0.00,,,0.00,Wunderground v.1.15,2013-01-14 14:07:00,
2013-01-14 08:13:00,11.0,6.8,30.48,ENE,57,4.0,6.0,83,0.00,,,0.00,Wunderground v.1.15,2013-01-14 14:13:00,
2013-01-14 08:19:00,11.4,7.2,30.48,ENE,63,5.0,7.0,83,0.00,,,0.00,Wunderground v.1.15,2013-01-14 14:19:00,
2013-01-14 08:25:00,12.1,7.7,30.48,NE,54,5.0,6.0,82,0.00,,,0.00,Wunderground v.1.15,2013-01-14 14:25:00,
2013-01-14 08:30:00,12.5,7.8,30.49,NE,34,5.0,5.0,81,0.00,,,0.00,Wunderground v.1.15,2013-01-14 14:30:00,
2013-01-14 08:36:00,13.0,8.0,30.49,NE,52,5.0,6.0,80,0.00,,,0.00,Wunderground v.1.15,2013-01-14 14:36:00,
2013-01-14 08:42:00,13.7,8.7,30.50,ENE,63,4.0,5.0,80,0.00,,,0.00,Wunderground v.1.15,2013-01-14 14:42:00,
2013-01-14 08:48:00,14.3,9.0,30.49,ENE,58,4.0,8.0,79,0.00,,,0.00,Wunderground v.1.15,2013-01-14 14:48:00,
2013-01-14 08:53:00,14.8,9.2,30.49,ENE,78,5.0,7.0,78,0.00,,,0.00,Wunderground v.1.15,2013-01-14 14:53:00,
2013-01-14 08:59:00,15.2,9.3,30.50,NE,49,5.0,7.0,77,0.00,,,0.00,Wunderground v.1.15,2013-01-14 14:59:00,
2013-01-14 09:05:00,15.5,9.3,30.51,NE,54,5.0,6.0,76,0.00,,,0.00,Wunderground v.1.15,2013-01-14 15:05:00,
2013-01-14 09:11:00,15.5,9.3,30.51,ENE,61,4.0,4.0,76,0.00,,,0.00,Wunderground v.1.15,2013-01-14 15:11:00,
2013-01-14 09:17:00,15.7,9.5,30.52,ENE,64,3.0,5.0,76,0.00,,,0.00,Wunderground v.1.15,2013-01-14 15:17:00,
2013-01-14 09:22:00,15.8,9.6,30.53,ENE,64,2.0,3.0,76,0.00,,,0.00,Wunderground v.1.15,2013-01-14 15:22:00,
2013-01-14 09:28:00,16.1,9.6,30.53,ENE,64,1.0,5.0,75,0.00,,,0.00,Wunderground v.1.15,2013-01-14 15:28:00,
2013-01-14 09:34:00,16.3,9.8,30.54,ENE,64,2.0,4.0,75,0.00,,,0.00,Wunderground v.1.15,2013-01-14 15:34:00,
2013-01-14 09:39:00,16.6,9.8,30.54,ENE,63,1.0,4.0,74,0.00,,,0.00,Wunderground v.1.15,2013-01-14 15:39:00,
2013-01-14 09:45:00,16.6,9.8,30.54,ENE,63,1.0,4.0,74,0.00,,,0.00,Wunderground v.1.15,2013-01-14 15:45:00,
2013-01-14 09:51:00,16.7,9.8,30.54,ENE,63,1.0,2.0,74,0.00,,,0.00,Wunderground v.1.15,2013-01-14 15:51:00,
2013-01-14 09:56:00,17.0,10.1,30.54,ENE,63,1.0,4.0,74,0.00,,,0.00,Wunderground v.1.15,2013-01-14 15:56:00,
2013-01-14 10:02:00,17.2,10.6,30.53,ENE,65,2.0,2.0,75,0.00,,,0.00,Wunderground v.1.15,2013-01-14 16:02:00,
2013-01-14 10:08:00,17.3,10.4,30.53,ENE,65,2.0,4.0,74,0.00,,,0.00,Wunderground v.1.15,2013-01-14 16:08:00,
2013-01-14 10:14:00,17.5,10.9,30.53,ENE,65,1.0,2.0,75,0.00,,,0.00,Wunderground v.1.15,2013-01-14 16:14:00,
2013-01-14 10:19:00,17.9,11.3,30.53,ENE,65,1.0,2.0,75,0.00,,,0.00,Wunderground v.1.15,2013-01-14 16:19:00,
2013-01-14 10:25:00,18.1,10.9,30.53,ENE,65,1.0,4.0,73,0.00,,,0.00,Wunderground v.1.15,2013-01-14 16:25:00,
2013-01-14 10:31:00,18.3,11.4,30.53,ENE,65,1.0,2.0,74,0.00,,,0.00,Wunderground v.1.15,2013-01-14 16:31:00,
2013-01-14 10:37:00,18.8,10.9,30.53,ENE,65,2.0,4.0,71,0.00,,,0.00,Wunderground v.1.15,2013-01-14 16:37:00,
2013-01-14 10:42:00,18.9,10.7,30.52,ENE,65,2.0,5.0,70,0.00,,,0.00,Wunderground v.1.15,2013-01-14 16:42:00,
2013-01-14 10:48:00,18.8,10.6,30.52,ENE,65,3.0,5.0,70,0.00,,,0.00,Wunderground v.1.15,2013-01-14 16:48:00,
2013-01-14 10:54:00,18.8,10.6,30.52,ENE,65,3.0,4.0,70,0.00,,,0.00,Wunderground v.1.15,2013-01-14 16:54:00,
2013-01-14 11:00:00,19.0,10.8,30.51,ENE,60,3.0,4.0,70,0.00,,,0.00,Wunderground v.1.15,2013-01-14 17:00:00,
2013-01-14 11:05:00,19.3,10.8,30.51,NE,42,3.0,6.0,69,0.00,,,0.00,Wunderground v.1.15,2013-01-14 17:05:00,
2013-01-14 11:11:00,19.7,10.5,30.51,ENE,67,4.0,6.0,67,0.00,,,0.00,Wunderground v.1.15,2013-01-14 17:11:00,
2013-01-14 11:17:00,19.9,9.3,30.51,ENE,57,5.0,6.0,63,0.00,,,0.00,Wunderground v.1.15,2013-01-14 17:17:00,
2013-01-14 11:23:00,20.1,9.5,30.51,ENE,57,5.0,6.0,63,0.00,,,0.00,Wunderground v.1.15,2013-01-14 17:23:00,
2013-01-14 11:28:00,20.4,9.4,30.51,ENE,67,4.0,6.0,62,0.00,,,0.00,Wunderground v.1.15,2013-01-14 17:28:00,
2013-01-14 11:34:00,20.8,9.5,30.51,ENE,70,4.0,6.0,61,0.00,,,0.00,Wunderground v.1.15,2013-01-14 17:34:00,
2013-01-14 11:40:00,20.9,9.2,30.51,NE,55,4.0,4.0,60,0.00,,,0.00,Wunderground v.1.15,2013-01-14 17:40:00,
2013-01-14 11:46:00,21.0,8.9,30.51,NE,49,4.0,6.0,59,0.00,,,0.00,Wunderground v.1.15,2013-01-14 17:46:00,
2013-01-14 11:51:00,21.2,9.5,30.50,ENE,57,4.0,4.0,60,0.00,,,0.00,Wunderground v.1.15,2013-01-14 17:51:00,
2013-01-14 11:57:00,21.3,9.9,30.50,ENE,57,3.0,4.0,61,0.00,,,0.00,Wunderground v.1.15,2013-01-14 17:57:00,
2013-01-14 12:03:00,21.5,9.4,30.50,NE,53,2.0,4.0,59,0.00,,,0.00,Wunderground v.1.15,2013-01-14 18:03:00,
2013-01-14 12:08:00,22.0,10.2,30.50,NE,53,1.0,4.0,60,0.00,,,0.00,Wunderground v.1.15,2013-01-14 18:08:00,
2013-01-14 12:14:00,22.6,10.4,30.50,NE,53,1.0,2.0,59,0.00,,,0.00,Wunderground v.1.15,2013-01-14 18:14:00,
2013-01-14 12:20:00,22.9,9.9,30.50,NE,53,2.0,2.0,57,0.00,,,0.00,Wunderground v.1.15,2013-01-14 18:20:00,
2013-01-14 12:26:00,22.7,9.7,30.49,NE,53,1.0,5.0,57,0.00,,,0.00,Wunderground v.1.15,2013-01-14 18:26:00,
2013-01-14 12:31:00,22.4,9.1,30.49,NE,53,2.0,3.0,56,0.00,,,0.00,Wunderground v.1.15,2013-01-14 18:31:00,
2013-01-14 12:37:00,22.6,9.6,30.49,NE,53,2.0,4.0,57,0.00,,,0.00,Wunderground v.1.15,2013-01-14 18:37:00,
2013-01-14 12:43:00,22.7,8.5,30.49,NE,53,2.0,2.0,54,0.00,,,0.00,Wunderground v.1.15,2013-01-14 18:43:00,
2013-01-14 12:49:00,23.1,9.3,30.49,NE,53,2.0,4.0,55,0.00,,,0.00,Wunderground v.1.15,2013-01-14 18:49:00,
2013-01-14 12:54:00,23.2,9.0,30.49,NE,53,2.0,5.0,54,0.00,,,0.00,Wunderground v.1.15,2013-01-14 18:54:00,
2013-01-14 13:00:00,23.4,8.3,30.49,NE,53,2.0,2.0,52,0.00,,,0.00,Wunderground v.1.15,2013-01-14 19:00:00,
2013-01-14 13:06:00,23.5,8.4,30.49,NE,53,1.0,3.0,52,0.00,,,0.00,Wunderground v.1.15,2013-01-14 19:06:00,
2013-01-14 13:12:00,23.9,8.8,30.48,NE,53,1.0,2.0,52,0.00,,,0.00,Wunderground v.1.15,2013-01-14 19:12:00,
2013-01-14 13:17:00,25.2,9.1,30.48,NE,53,0.0,2.0,50,0.00,,,0.01,Wunderground v.1.15,2013-01-14 19:17:00,
2013-01-14 13:23:00,25.1,9.5,30.48,SE,135,1.0,4.0,51,0.00,,,0.01,Wunderground v.1.15,2013-01-14 19:23:00,
2013-01-14 13:29:00,24.5,8.9,30.48,SE,126,1.0,4.0,51,0.00,,,0.01,Wunderground v.1.15,2013-01-14 19:29:00,
2013-01-14 13:35:00,24.2,8.2,30.47,SE,128,1.0,2.0,50,0.00,,,0.01,Wunderground v.1.15,2013-01-14 19:35:00,
2013-01-14 13:41:00,24.2,9.5,30.47,South,184,1.0,2.0,53,0.00,,,0.01,Wunderground v.1.15,2013-01-14 19:41:00,
2013-01-14 13:47:00,25.2,10.0,30.47,South,184,1.0,2.0,52,0.00,,,0.01,Wunderground v.1.15,2013-01-14 19:47:00,
2013-01-14 13:53:00,26.1,10.4,30.48,South,188,1.0,2.0,51,0.00,,,0.02,Wunderground v.1.15,2013-01-14 19:53:00,
2013-01-14 13:59:00,26.4,9.8,30.48,SSW,209,1.0,2.0,49,0.00,,,0.02,Wunderground v.1.15,2013-01-14 19:59:00,
2013-01-14 14:04:00,26.5,9.0,30.48,SSW,209,1.0,2.0,47,0.04,,,0.03,Wunderground v.1.15,2013-01-14 20:04:00,
2013-01-14 14:10:00,27.1,9.5,30.48,SSW,209,0.0,2.0,47,0.04,,,0.03,Wunderground v.1.15,2013-01-14 20:10:00,
2013-01-14 14:16:00,27.0,8.5,30.48,SSW,209,1.0,2.0,45,0.04,,,0.03,Wunderground v.1.15,2013-01-14 20:16:00,
2013-01-14 14:22:00,27.4,9.3,30.48,SSW,209,0.0,2.0,46,0.00,,,0.03,Wunderground v.1.15,2013-01-14 20:22:00,
2013-01-14 14:27:00,27.8,8.7,30.48,SSW,209,0.0,2.0,44,0.00,,,0.03,Wunderground v.1.15,2013-01-14 20:27:00,
2013-01-14 14:33:00,27.9,9.8,30.48,SSW,209,1.0,2.0,46,0.00,,,0.04,Wunderground v.1.15,2013-01-14 20:33:00,
2013-01-14 14:39:00,27.9,10.2,30.48,SSW,209,1.0,3.0,47,0.00,,,0.04,Wunderground v.1.15,2013-01-14 20:39:00,
2013-01-14 14:44:00,27.6,9.5,30.48,SSW,209,1.0,2.0,46,0.00,,,0.04,Wunderground v.1.15,2013-01-14 20:44:00,
2013-01-14 14:50:00,27.9,10.7,30.47,SSW,209,1.0,2.0,48,0.00,,,0.04,Wunderground v.1.15,2013-01-14 20:50:00,
2013-01-14 14:56:00,28.6,9.4,30.48,SSW,209,0.0,2.0,44,0.00,,,0.05,Wunderground v.1.15,2013-01-14 20:56:00,
2013-01-14 15:01:00,28.4,9.2,30.48,SSW,209,0.0,2.0,44,0.00,,,0.05,Wunderground v.1.15,2013-01-14 21:01:00,
2013-01-14 15:07:00,28.0,8.9,30.48,SSW,209,0.0,2.0,44,0.00,,,0.05,Wunderground v.1.15,2013-01-14 21:07:00,
2013-01-14 15:13:00,28.1,9.9,30.48,SSW,209,0.0,2.0,46,0.00,,,0.05,Wunderground v.1.15,2013-01-14 21:13:00,
2013-01-14 15:19:00,28.2,11.0,30.47,SSW,209,0.0,2.0,48,0.00,,,0.05,Wunderground v.1.15,2013-01-14 21:19:00,
2013-01-14 15:25:00,27.2,10.1,30.48,SSE,158,1.0,2.0,48,0.00,,,0.05,Wunderground v.1.15,2013-01-14 21:25:00,
2013-01-14 15:31:00,25.6,10.8,30.48,SSE,152,3.0,3.0,53,0.00,,,0.05,Wunderground v.1.15,2013-01-14 21:31:00,
2013-01-14 15:37:00,24.8,11.3,30.47,South,173,3.0,4.0,56,0.00,,,0.05,Wunderground v.1.15,2013-01-14 21:37:00,
2013-01-14 15:43:00,24.6,11.9,30.48,South,178,1.0,3.0,58,0.00,,,0.05,Wunderground v.1.15,2013-01-14 21:43:00,
2013-01-14 15:49:00,24.7,11.6,30.48,South,182,1.0,3.0,57,0.00,,,0.05,Wunderground v.1.15,2013-01-14 21:49:00,
2013-01-14 15:54:00,25.1,11.6,30.48,South,182,0.0,2.0,56,0.00,,,0.05,Wunderground v.1.15,2013-01-14 21:54:00,
2013-01-14 16:00:00,25.7,12.2,30.48,South,182,0.0,2.0,56,0.00,,,0.05,Wunderground v.1.15,2013-01-14 22:00:00,
2013-01-14 16:06:00,25.8,11.8,30.48,South,182,0.0,2.0,55,0.00,,,0.05,Wunderground v.1.15,2013-01-14 22:06:00,
2013-01-14 16:12:00,25.3,11.4,30.48,South,173,1.0,2.0,55,0.00,,,0.05,Wunderground v.1.15,2013-01-14 22:12:00,
2013-01-14 16:18:00,24.4,11.3,30.49,South,178,1.0,4.0,57,0.00,,,0.05,Wunderground v.1.15,2013-01-14 22:18:00,
2013-01-14 16:24:00,23.8,10.8,30.48,South,177,1.0,2.0,57,0.00,,,0.05,Wunderground v.1.15,2013-01-14 22:24:00,
2013-01-14 16:31:00,23.3,10.3,30.48,South,177,1.0,2.0,57,0.00,,,0.05,Wunderground v.1.15,2013-01-14 22:31:00,
2013-01-14 16:37:00,23.1,9.3,30.48,SSE,161,1.0,4.0,55,0.00,,,0.05,Wunderground v.1.15,2013-01-14 22:37:00,
2013-01-14 16:43:00,22.6,8.0,30.47,SSE,161,2.0,2.0,53,0.00,,,0.05,Wunderground v.1.15,2013-01-14 22:43:00,
2013-01-14 16:49:00,22.4,7.8,30.47,SSE,161,2.0,2.0,53,0.00,,,0.05,Wunderground v.1.15,2013-01-14 22:49:00,
2013-01-14 16:55:00,22.2,7.6,30.46,SSE,161,1.0,2.0,53,0.00,,,0.05,Wunderground v.1.15,2013-01-14 22:55:00,
2013-01-14 17:01:00,21.7,8.0,30.46,SSE,161,0.0,2.0,55,0.00,,,0.05,Wunderground v.1.15,2013-01-14 23:01:00,
2013-01-14 17:07:00,20.9,8.8,30.46,SSE,161,0.0,2.0,59,0.00,,,0.05,Wunderground v.1.15,2013-01-14 23:07:00,
2013-01-14 17:13:00,20.4,8.3,30.47,SSE,161,0.0,2.0,59,0.00,,,0.05,Wunderground v.1.15,2013-01-14 23:13:00,
2013-01-14 17:18:00,20.0,8.3,30.47,SSE,161,0.0,2.0,60,0.00,,,0.05,Wunderground v.1.15,2013-01-14 23:18:00,
2013-01-14 17:24:00,19.6,7.6,30.47,SSE,161,0.0,2.0,59,0.00,,,0.05,Wunderground v.1.15,2013-01-14 23:24:00,
2013-01-14 17:30:00,19.4,7.4,30.48,SSE,161,0.0,2.0,59,0.00,,,0.05,Wunderground v.1.15,2013-01-14 23:30:00,
2013-01-14 17:35:00,19.3,7.3,30.47,SSE,161,0.0,2.0,59,0.00,,,0.05,Wunderground v.1.15,2013-01-14 23:35:00,
2013-01-14 17:41:00,19.2,7.2,30.48,SSE,161,0.0,2.0,59,0.00,,,0.05,Wunderground v.1.15,2013-01-14 23:41:00,
2013-01-14 17:46:00,19.4,6.6,30.48,SSE,161,0.0,2.0,57,0.00,,,0.05,Wunderground v.1.15,2013-01-14 23:46:00,
2013-01-14 17:51:00,19.6,6.8,30.48,SSE,161,0.0,2.0,57,0.00,,,0.05,Wunderground v.1.15,2013-01-14 23:51:00,
2013-01-14 17:57:00,19.8,6.6,30.48,SSE,161,0.0,2.0,56,0.00,,,0.05,Wunderground v.1.15,2013-01-14 23:57:00,
2013-01-14 18:03:00,19.9,5.5,30.48,SSE,161,0.0,2.0,53,0.00,,,0.05,Wunderground v.1.15,2013-01-15 00:03:00,
2013-01-14 18:09:00,20.2,5.8,30.48,SSE,161,1.0,2.0,53,0.00,,,0.05,Wunderground v.1.15,2013-01-15 00:09:00,
2013-01-14 18:14:00,20.3,5.9,30.48,SSE,161,1.0,2.0,53,0.00,,,0.05,Wunderground v.1.15,2013-01-15 00:14:00,
2013-01-14 18:20:00,20.2,6.2,30.48,SSE,161,1.0,2.0,54,0.00,,,0.05,Wunderground v.1.15,2013-01-15 00:20:00,
2013-01-14 18:26:00,20.1,6.5,30.48,SSE,161,1.0,2.0,55,0.00,,,0.05,Wunderground v.1.15,2013-01-15 00:26:00,
2013-01-14 18:32:00,19.8,6.6,30.48,SSE,161,1.0,2.0,56,0.00,,,0.05,Wunderground v.1.15,2013-01-15 00:32:00,
2013-01-14 18:39:00,19.4,8.8,30.47,SSE,161,0.0,2.0,63,0.00,,,0.05,Wunderground v.1.15,2013-01-15 00:39:00,
2013-01-14 18:45:00,19.1,7.1,30.47,SSE,161,0.0,2.0,59,0.00,,,0.05,Wunderground v.1.15,2013-01-15 00:45:00,
2013-01-14 18:51:00,18.9,6.9,30.48,SSE,161,0.0,2.0,59,0.00,,,0.05,Wunderground v.1.15,2013-01-15 00:51:00,
2013-01-14 18:56:00,18.7,7.1,30.48,SSE,161,0.0,2.0,60,0.00,,,0.05,Wunderground v.1.15,2013-01-15 00:56:00,
2013-01-14 19:02:00,18.5,6.9,30.47,SSE,161,0.0,2.0,60,0.00,,,0.05,Wunderground v.1.15,2013-01-15 01:02:00,
2013-01-14 19:08:00,18.3,7.1,30.47,SSE,161,0.0,2.0,61,0.00,,,0.05,Wunderground v.1.15,2013-01-15 01:08:00,
2013-01-14 19:14:00,18.3,6.7,30.47,SSE,161,0.0,2.0,60,0.00,,,0.05,Wunderground v.1.15,2013-01-15 01:14:00,
2013-01-14 19:19:00,18.3,6.7,30.47,SSE,161,0.0,2.0,60,0.00,,,0.05,Wunderground v.1.15,2013-01-15 01:19:00,
2013-01-14 19:24:00,18.2,6.6,30.47,SSE,161,0.0,2.0,60,0.00,,,0.05,Wunderground v.1.15,2013-01-15 01:24:00,
2013-01-14 19:30:00,17.9,6.3,30.47,SSE,161,0.0,2.0,60,0.00,,,0.05,Wunderground v.1.15,2013-01-15 01:30:00,
2013-01-14 19:35:00,17.7,6.5,30.47,SSE,161,0.0,2.0,61,0.00,,,0.05,Wunderground v.1.15,2013-01-15 01:35:00,
2013-01-14 19:41:00,17.3,6.1,30.47,SSE,161,0.0,2.0,61,0.00,,,0.05,Wunderground v.1.15,2013-01-15 01:41:00,
2013-01-14 19:46:00,17.0,6.2,30.47,SSE,161,0.0,2.0,62,0.00,,,0.05,Wunderground v.1.15,2013-01-15 01:46:00,
2013-01-14 19:53:00,16.4,6.0,30.47,SSE,161,0.0,2.0,63,0.00,,,0.05,Wunderground v.1.15,2013-01-15 01:53:00,
2013-01-14 19:59:00,16.1,6.1,30.47,SSE,161,0.0,2.0,64,0.00,,,0.05,Wunderground v.1.15,2013-01-15 01:59:00,
2013-01-14 20:05:00,16.1,6.4,30.47,SSE,161,0.0,2.0,65,0.00,,,0.05,Wunderground v.1.15,2013-01-15 02:05:00,
2013-01-14 20:10:00,16.4,6.3,30.47,SSE,161,0.0,2.0,64,0.00,,,0.05,Wunderground v.1.15,2013-01-15 02:10:00,
2013-01-14 20:16:00,16.9,6.8,30.47,SSE,161,0.0,2.0,64,0.00,,,0.05,Wunderground v.1.15,2013-01-15 02:16:00,
2013-01-14 20:22:00,17.3,6.8,30.47,SSE,161,0.0,2.0,63,0.00,,,0.05,Wunderground v.1.15,2013-01-15 02:22:00,
2013-01-14 20:28:00,17.7,6.9,30.47,SSE,161,0.0,2.0,62,0.00,,,0.05,Wunderground v.1.15,2013-01-15 02:28:00,
2013-01-14 20:34:00,18.0,6.8,30.47,SSE,161,0.0,2.0,61,0.00,,,0.05,Wunderground v.1.15,2013-01-15 02:34:00,
2013-01-14 20:40:00,18.1,6.9,30.47,SSE,161,1.0,2.0,61,0.00,,,0.05,Wunderground v.1.15,2013-01-15 02:40:00,
2013-01-14 20:46:00,18.4,6.8,30.46,SSE,161,1.0,2.0,60,0.00,,,0.05,Wunderground v.1.15,2013-01-15 02:46:00,
2013-01-14 20:51:00,18.5,6.9,30.46,SSE,161,1.0,2.0,60,0.00,,,0.05,Wunderground v.1.15,2013-01-15 02:51:00,
2013-01-14 20:57:00,18.5,6.9,30.46,SSE,161,1.0,2.0,60,0.00,,,0.05,Wunderground v.1.15,2013-01-15 02:57:00,
2013-01-14 21:03:00,18.3,6.7,30.46,SSE,161,0.0,2.0,60,0.00,,,0.05,Wunderground v.1.15,2013-01-15 03:03:00,
2013-01-14 21:09:00,18.0,6.8,30.46,SSE,161,0.0,2.0,61,0.00,,,0.05,Wunderground v.1.15,2013-01-15 03:09:00,
2013-01-14 21:14:00,17.9,6.7,30.46,SSE,161,0.0,2.0,61,0.00,,,0.05,Wunderground v.1.15,2013-01-15 03:14:00,
2013-01-14 21:20:00,17.9,6.7,30.47,SSE,161,0.0,2.0,61,0.00,,,0.05,Wunderground v.1.15,2013-01-15 03:20:00,
2013-01-14 21:26:00,18.0,6.8,30.46,SSE,161,1.0,2.0,61,0.00,,,0.05,Wunderground v.1.15,2013-01-15 03:26:00,
2013-01-14 21:32:00,18.1,6.9,30.46,SSE,161,1.0,2.0,61,0.00,,,0.05,Wunderground v.1.15,2013-01-15 03:32:00,
2013-01-14 21:37:00,18.2,7.0,30.46,SSE,161,1.0,2.0,61,0.00,,,0.05,Wunderground v.1.15,2013-01-15 03:37:00,
2013-01-14 21:43:00,18.2,7.0,30.46,SSE,161,1.0,2.0,61,0.00,,,0.05,Wunderground v.1.15,2013-01-15 03:43:00,
2013-01-14 21:49:00,18.2,7.0,30.46,SSE,161,1.0,2.0,61,0.00,,,0.05,Wunderground v.1.15,2013-01-15 03:49:00,
2013-01-14 21:55:00,18.1,6.9,30.46,SSE,161,1.0,2.0,61,0.00,,,0.05,Wunderground v.1.15,2013-01-15 03:55:00,
2013-01-14 22:00:00,18.1,7.3,30.46,SSE,161,1.0,2.0,62,0.00,,,0.05,Wunderground v.1.15,2013-01-15 04:00:00,
2013-01-14 22:06:00,17.8,7.0,30.47,SSE,161,0.0,2.0,62,0.00,,,0.05,Wunderground v.1.15,2013-01-15 04:06:00,
2013-01-14 22:12:00,17.8,7.0,30.47,SSE,161,1.0,2.0,62,0.00,,,0.05,Wunderground v.1.15,2013-01-15 04:12:00,
2013-01-14 22:17:00,17.8,7.0,30.47,SSE,161,1.0,2.0,62,0.00,,,0.05,Wunderground v.1.15,2013-01-15 04:17:00,
2013-01-14 22:23:00,17.5,6.7,30.47,SSE,161,0.0,2.0,62,0.00,,,0.05,Wunderground v.1.15,2013-01-15 04:23:00,
2013-01-14 22:29:00,16.8,6.7,30.46,SSE,161,0.0,2.0,64,0.00,,,0.05,Wunderground v.1.15,2013-01-15 04:29:00,
2013-01-14 22:35:00,16.0,6.6,30.46,SSE,161,0.0,2.0,66,0.00,,,0.05,Wunderground v.1.15,2013-01-15 04:35:00,
2013-01-14 22:41:00,15.5,6.8,30.46,SSE,161,0.0,2.0,68,0.00,,,0.05,Wunderground v.1.15,2013-01-15 04:41:00,
2013-01-14 22:47:00,14.9,6.2,30.46,SSE,161,0.0,2.0,68,0.00,,,0.05,Wunderground v.1.15,2013-01-15 04:47:00,
2013-01-14 22:53:00,14.3,6.3,30.47,SSE,161,0.0,2.0,70,0.00,,,0.05,Wunderground v.1.15,2013-01-15 04:53:00,
2013-01-14 22:58:00,14.2,6.8,30.46,SSE,161,0.0,2.0,72,0.00,,,0.05,Wunderground v.1.15,2013-01-15 04:58:00,
2013-01-14 23:00:00,14.0,6.9,30.46,SSE,161,0.0,2.0,73,0.00,,,0.05,Wunderground v.1.15,2013-01-15 05:00:00,
2013-01-14 23:01:00,14.0,6.6,30.46,SSE,161,0.0,2.0,72,0.00,,,0.05,Wunderground v.1.15,2013-01-15 05:01:00,
2013-01-14 23:04:00,13.9,6.8,30.46,SSE,161,0.0,2.0,73,0.00,,,0.05,Wunderground v.1.15,2013-01-15 05:04:00,
2013-01-14 23:10:00,13.7,6.3,30.46,SSE,161,0.0,2.0,72,0.00,,,0.05,Wunderground v.1.15,2013-01-15 05:10:00,
2013-01-14 23:12:00,13.7,6.6,30.47,SSE,161,0.0,2.0,73,0.00,,,0.05,Wunderground v.1.15,2013-01-15 05:12:00,
2013-01-14 23:18:00,13.5,6.5,30.47,SSE,161,0.0,2.0,73,0.00,,,0.05,Wunderground v.1.15,2013-01-15 05:18:00,
2013-01-14 23:23:00,13.8,6.4,30.46,SSE,161,0.0,2.0,72,0.00,,,0.05,Wunderground v.1.15,2013-01-15 05:23:00,
2013-01-14 23:29:00,13.9,6.2,30.46,SSE,161,0.0,2.0,71,0.00,,,0.05,Wunderground v.1.15,2013-01-15 05:29:00,
2013-01-14 23:35:00,14.1,6.4,30.46,SSE,161,0.0,2.0,71,0.00,,,0.05,Wunderground v.1.15,2013-01-15 05:35:00,
2013-01-14 23:41:00,14.1,6.4,30.46,SSE,161,0.0,2.0,71,0.00,,,0.05,Wunderground v.1.15,2013-01-15 05:41:00,
2013-01-14 23:46:00,14.3,6.6,30.46,SSE,161,0.0,2.0,71,0.00,,,0.05,Wunderground v.1.15,2013-01-15 05:46:00,
2013-01-14 23:52:00,15.0,7.3,30.46,SSE,161,0.0,2.0,71,0.00,,,0.05,Wunderground v.1.15,2013-01-15 05:52:00,
2013-01-14 23:57:00,15.6,7.2,30.45,SSE,161,0.0,2.0,69,0.00,,,0.05,Wunderground v.1.15,2013-01-15 05:57:00,